Bitahochee, Arizona
Current Conditions -  °F | °C
As of 2:56 AM on Saturday 25 Oct 2014 (Local Time) from KINW Reporting Station
Clear Clear  
Wind Chill: 47°   Ceiling: Unl
Heat Index: 49°   Visibility: 10mi
Dew Point: 38°   Wind: 5mph
Humidity: 66%   Direction: 120°ESE
Pressure: 30.26"   Gusts: NA
Location:  35.4077°N, 110.085°W
Report Text: KINW 250856Z AUTO 12004KT 10SM CLR 09/03 A3026 RMK AO2 SLP190 T00940033 52002
Loading
Personal Weather Stations






























Interactive Weather Map
Tropical Storm Tracking
New forecast layout! Learn more

10-Day Weather Forecast

Advertisements
Track Severe Weather on mobile